My Meet Scores
Samantha Gad, Flipstar Gymnastics Academy - MyMeetScores.com
Top100 | Top Teams | Upcoming Meets | Completed Meets | Latest | Add Scores | Help| Support | Bookmark and Share

Samantha Gad, Flipstar Gymnastics Academy
Personal Bests
LevelVault BarsBeamFloorAA
39.5008.900 9.0509.35036.700
49.3259.250 9.5259.40037.075
69.1508.500 9.2509.40036.125
Meet Scores
Date Meet Team Session Level Division Vault Bars Beam Floor AA
2021-02-26 Kinetic Classic 2021 Flipstar Gymnastics Academy 12 6 Younger 8.975 17 8.500 16T 9.250 9 9.400 16T 36.125 17
2021-02-19 BIG Classic 2021 Flipstar Gymnastics Academy 1B 6 Child A 9.150 2 8.300 8 8.900 8 9.050 12T 35.400 5
2021-01-21 King Arthur Invitational Flipstar Gymnastics Academy 1 6 JR 8.725 3 7.850 7T 8.400 8 8.950 8T 33.925 7
2020-12-04 Flipstar's Home for the Holidays Flipstar Gymnastics Academy 4 6 All 8.450 6T 7.175 12 8.625 8 8.900 9 33.150 9T
2020-03-06 Illinois Level 4 State Championships Flipstar Gymnastics Academy 4 4 Youth E 9.325 2T 8.675 18T 9.350 13* 9.400 4 36.750 8T
2020-02-21 Kinetic Classic Flipstar Gymnastics Academy 06 4 Middle 9.200 6 9.150 37T 9.350 19T 9.375 12T 37.075 9
2020-02-14 Big Classic Flipstar Gymnastics Academy 4B 4 Child C 9.200 5T 8.750 33T 9.150 32T 9.300 13T 36.400 15
2020-02-07 IGI Chicago Style Meet Flipstar Gymnastics Academy 121 4 B 9.050 9 8.700 12 9.075 5T 9.375 5T 36.200 9
2020-01-30 Circle of Stars Flipstar Gymnastics Academy D02 4 Jr C 9.150 6T 8.300 14 9.050 7T 8.825 11 35.325 11
2020-01-24 King Arthur Invitational Flipstar Gymnastics Academy 1 4 Jr C 9.200 3T 8.625 11 9.325 4T 8.925 9T 36.075 3
2019-12-13 Crossroads Classic Flipstar Gymnastics Academy 1 4 Ch C 9.200 3T 9.000 7 8.900 12 9.150 3T 36.250 4
2019-12-07 Home for the Holidays 2019 Flipstar Gymnastics Academy 4 4 Jr C 9.175 2T 9.250 7T 9.025 2 9.275 2T 36.725 2
2019-11-08 Illinois Judges Cup Flipstar Gymnastics Academy G5 4 All Ages 8.950 5T 8.925 20 9.325 8 9.175 5 36.375 4
2019-03-22 Illinois Gymnastics State Championships Flipstar Gymnastics Academy 9 4 Ch D 9.275 2T 8.950 11 9.525 4 8.750 20T 36.500 6
2019-03-01 2019 MEGA Spring Invite Flipstar Gymnastics Academy All 4 All Ages 8.625 69T 8.550 73T 9.325 19T 9.000 48T 35.500 43
2019-02-23 Kinetic Classic 2019 Flipstar Gymnastics Academy 1 4 Younger 8.675 17T 8.700 27 9.000 16T 9.000 21 35.375 19
2019-02-08 Midwest Twisters Harley Meet Womens Flipstar Gymnastics Academy T09 4 8 & under 8.600 5 8.350 7 9.125 2T 8.850 5 34.925 3
2019-01-25 King Arthur Invitational Flipstar Gymnastics Academy 1 4 Jr B 8.150 9T 8.550 9 8.500 12 9.000 8 34.200 9
2018-12-07 Horton Invite Flipstar Gymnastics Academy 1 4 Ch A 8.200 13 8.750 6T 8.400 18T 9.100 5T 34.450 9
2018-05-03 Illinois USA Gymnastics Level 3 State Championships Flipstar Gymnastics Academy 8 3 Ch E 9.500 10T 8.900 24 8.950 14T 9.350 10 36.700 15
2018-02-23 Kinetic Classic Flipstar Gymnastics Academy 4 3 Younger 8.800 61T 8.400 88T 8.700 75T 9.175 51T 35.075 73
2018-02-16 Big Classic Flipstar Gymnastics Academy 6B 3 Child A 9.125 5T 8.375 11 9.050 7 9.350 4 35.900 9
2018-01-26 King Arthur Invitational Flipstar Gymnastics Academy 5 3 JRA 9.275 11T 8.450 19T 8.050 22T 9.025 10T 34.800 15
2017-12-08 Horton Invite At IWU Shirk Center Flipstar Gymnastics Academy All 3 Chr B 9.250 8T 8.175 17 8.700 11T 8.950 6T 35.075 11
2017-11-17 SCGA Classic Flipstar Gymnastics Academy 1 3 JrA 8.850 9 7.500 15 8.525 7 8.700 8 33.575 10
2017-11-10 Illinois NAWGJ Judges Cup 2017 Flipstar Gymnastics Academy S6 3 All Ages 8.825 53T 7.950 45T 8.150 33T 8.900 27T 33.825 46
Get your scores on
a t-shirt, pin, or hoodie

www.lazysuits.com